sensor_id;sensor_type;location;lat;lon;timestamp;temperature;humidity
76211;DHT22;65003;49.518;11.280;2023-06-19T00:01:12;19.20;62.70
76211;DHT22;65003;49.518;11.280;2023-06-19T00:03:38;19.20;62.80
76211;DHT22;65003;49.518;11.280;2023-06-19T00:06:05;19.30;63.00
76211;DHT22;65003;49.518;11.280;2023-06-19T00:08:32;19.40;63.00
76211;DHT22;65003;49.518;11.280;2023-06-19T00:10:58;19.40;63.00
76211;DHT22;65003;49.518;11.280;2023-06-19T00:13:25;19.40;62.80
76211;DHT22;65003;49.518;11.280;2023-06-19T00:15:51;19.40;62.50
76211;DHT22;65003;49.518;11.280;2023-06-19T00:18:18;19.40;61.90
76211;DHT22;65003;49.518;11.280;2023-06-19T00:20:45;19.40;61.60
76211;DHT22;65003;49.518;11.280;2023-06-19T00:23:11;19.30;61.80
76211;DHT22;65003;49.518;11.280;2023-06-19T00:25:38;19.30;62.20
76211;DHT22;65003;49.518;11.280;2023-06-19T00:28:04;19.20;62.20
76211;DHT22;65003;49.518;11.280;2023-06-19T00:30:31;19.20;62.10
76211;DHT22;65003;49.518;11.280;2023-06-19T00:32:58;19.30;62.50
76211;DHT22;65003;49.518;11.280;2023-06-19T00:35:24;19.30;62.40
76211;DHT22;65003;49.518;11.280;2023-06-19T00:37:51;19.40;62.70
76211;DHT22;65003;49.518;11.280;2023-06-19T00:40:26;19.40;63.00
76211;DHT22;65003;49.518;11.280;2023-06-19T00:42:51;19.40;62.20
76211;DHT22;65003;49.518;11.280;2023-06-19T00:45:18;19.40;62.20
76211;DHT22;65003;49.518;11.280;2023-06-19T00:47:44;19.30;62.00
76211;DHT22;65003;49.518;11.280;2023-06-19T00:50:11;19.30;61.50
76211;DHT22;65003;49.518;11.280;2023-06-19T00:52:37;19.30;61.90
76211;DHT22;65003;49.518;11.280;2023-06-19T00:55:05;19.20;62.00
76211;DHT22;65003;49.518;11.280;2023-06-19T00:57:31;19.20;62.00
76211;DHT22;65003;49.518;11.280;2023-06-19T00:59:58;19.10;61.90
76211;DHT22;65003;49.518;11.280;2023-06-19T01:02:25;19.10;62.00
76211;DHT22;65003;49.518;11.280;2023-06-19T01:04:51;19.10;62.10
76211;DHT22;65003;49.518;11.280;2023-06-19T01:07:22;19.10;61.80
76211;DHT22;65003;49.518;11.280;2023-06-19T01:09:48;19.10;61.90
76211;DHT22;65003;49.518;11.280;2023-06-19T01:12:18;19.10;61.90
76211;DHT22;65003;49.518;11.280;2023-06-19T01:14:47;19.10;61.60
76211;DHT22;65003;49.518;11.280;2023-06-19T01:17:11;19.20;62.00
76211;DHT22;65003;49.518;11.280;2023-06-19T01:19:37;19.20;61.50
76211;DHT22;65003;49.518;11.280;2023-06-19T01:22:04;19.20;61.30
76211;DHT22;65003;49.518;11.280;2023-06-19T01:24:31;19.30;60.80
76211;DHT22;65003;49.518;11.280;2023-06-19T01:26:57;19.30;61.00
76211;DHT22;65003;49.518;11.280;2023-06-19T01:29:24;19.30;61.00
76211;DHT22;65003;49.518;11.280;2023-06-19T01:31:59;19.30;61.30
76211;DHT22;65003;49.518;11.280;2023-06-19T01:34:27;19.20;61.50
76211;DHT22;65003;49.518;11.280;2023-06-19T01:36:54;19.20;61.50
76211;DHT22;65003;49.518;11.280;2023-06-19T01:39:21;19.20;61.80
76211;DHT22;65003;49.518;11.280;2023-06-19T01:41:47;19.20;62.00
76211;DHT22;65003;49.518;11.280;2023-06-19T01:44:14;19.10;62.10
76211;DHT22;65003;49.518;11.280;2023-06-19T01:46:40;19.10;62.10
76211;DHT22;65003;49.518;11.280;2023-06-19T01:49:08;19.10;62.10
76211;DHT22;65003;49.518;11.280;2023-06-19T01:51:33;19.10;62.40
76211;DHT22;65003;49.518;11.280;2023-06-19T01:54:00;19.10;62.40
76211;DHT22;65003;49.518;11.280;2023-06-19T01:56:27;19.10;62.00
76211;DHT22;65003;49.518;11.280;2023-06-19T01:58:53;19.10;62.00
76211;DHT22;65003;49.518;11.280;2023-06-19T02:01:20;19.10;61.60
76211;DHT22;65003;49.518;11.280;2023-06-19T02:03:46;19.10;62.00
76211;DHT22;65003;49.518;11.280;2023-06-19T02:06:13;19.20;62.00
76211;DHT22;65003;49.518;11.280;2023-06-19T02:08:40;19.30;61.30
76211;DHT22;65003;49.518;11.280;2023-06-19T02:11:06;19.30;61.10
76211;DHT22;65003;49.518;11.280;2023-06-19T02:13:33;19.20;61.30
76211;DHT22;65003;49.518;11.280;2023-06-19T02:16:00;19.10;62.40
76211;DHT22;65003;49.518;11.280;2023-06-19T02:18:26;19.00;61.70
76211;DHT22;65003;49.518;11.280;2023-06-19T02:20:54;19.00;61.90
76211;DHT22;65003;49.518;11.280;2023-06-19T02:23:20;19.00;62.10
76211;DHT22;65003;49.518;11.280;2023-06-19T02:25:47;18.90;62.00
76211;DHT22;65003;49.518;11.280;2023-06-19T02:28:14;18.80;62.00
76211;DHT22;65003;49.518;11.280;2023-06-19T02:30:40;18.80;61.90
76211;DHT22;65003;49.518;11.280;2023-06-19T02:33:07;18.80;61.70
76211;DHT22;65003;49.518;11.280;2023-06-19T02:35:33;18.80;62.20
76211;DHT22;65003;49.518;11.280;2023-06-19T02:38:00;18.70;62.30
76211;DHT22;65003;49.518;11.280;2023-06-19T02:40:27;18.70;63.50
76211;DHT22;65003;49.518;11.280;2023-06-19T02:42:53;18.60;63.20
76211;DHT22;65003;49.518;11.280;2023-06-19T02:45:20;18.50;64.40
76211;DHT22;65003;49.518;11.280;2023-06-19T02:47:47;18.50;64.10
76211;DHT22;65003;49.518;11.280;2023-06-19T02:50:13;18.50;65.00
76211;DHT22;65003;49.518;11.280;2023-06-19T02:52:40;18.50;64.40
76211;DHT22;65003;49.518;11.280;2023-06-19T02:55:07;18.40;64.60
76211;DHT22;65003;49.518;11.280;2023-06-19T02:57:33;18.40;64.70
76211;DHT22;65003;49.518;11.280;2023-06-19T03:00:00;18.40;65.00
76211;DHT22;65003;49.518;11.280;2023-06-19T03:02:27;18.30;65.10
76211;DHT22;65003;49.518;11.280;2023-06-19T03:04:53;18.30;65.70
76211;DHT22;65003;49.518;11.280;2023-06-19T03:07:20;18.40;65.50
76211;DHT22;65003;49.518;11.280;2023-06-19T03:09:46;18.60;64.90
76211;DHT22;65003;49.518;11.280;2023-06-19T03:12:13;18.70;64.70
76211;DHT22;65003;49.518;11.280;2023-06-19T03:14:40;18.70;64.20
76211;DHT22;65003;49.518;11.280;2023-06-19T03:17:06;18.70;64.30
76211;DHT22;65003;49.518;11.280;2023-06-19T03:19:33;18.70;65.30
76211;DHT22;65003;49.518;11.280;2023-06-19T03:22:01;18.90;63.80
76211;DHT22;65003;49.518;11.280;2023-06-19T03:24:28;18.80;63.40
76211;DHT22;65003;49.518;11.280;2023-06-19T03:26:54;18.70;64.50
76211;DHT22;65003;49.518;11.280;2023-06-19T03:29:21;18.60;64.20
76211;DHT22;65003;49.518;11.280;2023-06-19T03:31:48;18.60;64.30
76211;DHT22;65003;49.518;11.280;2023-06-19T03:34:14;18.60;64.40
76211;DHT22;65003;49.518;11.280;2023-06-19T03:36:41;18.60;64.10
76211;DHT22;65003;49.518;11.280;2023-06-19T03:39:08;18.70;63.70
76211;DHT22;65003;49.518;11.280;2023-06-19T03:41:34;18.90;63.10
76211;DHT22;65003;49.518;11.280;2023-06-19T03:44:01;19.10;62.70
76211;DHT22;65003;49.518;11.280;2023-06-19T03:46:27;19.30;61.60
76211;DHT22;65003;49.518;11.280;2023-06-19T03:48:54;19.50;60.90
76211;DHT22;65003;49.518;11.280;2023-06-19T03:51:20;19.80;59.80
76211;DHT22;65003;49.518;11.280;2023-06-19T03:53:47;20.10;59.00
76211;DHT22;65003;49.518;11.280;2023-06-19T03:56:14;20.20;58.20
76211;DHT22;65003;49.518;11.280;2023-06-19T03:58:40;20.40;57.80
76211;DHT22;65003;49.518;11.280;2023-06-19T04:01:07;20.40;57.60
76211;DHT22;65003;49.518;11.280;2023-06-19T04:03:33;20.50;57.70
76211;DHT22;65003;49.518;11.280;2023-06-19T04:06:00;20.60;57.70
76211;DHT22;65003;49.518;11.280;2023-06-19T04:08:27;20.50;59.20
76211;DHT22;65003;49.518;11.280;2023-06-19T04:10:54;20.20;59.90
76211;DHT22;65003;49.518;11.280;2023-06-19T04:13:20;20.10;59.80
76211;DHT22;65003;49.518;11.280;2023-06-19T04:15:47;19.80;62.60
76211;DHT22;65003;49.518;11.280;2023-06-19T04:18:14;19.70;63.80
76211;DHT22;65003;49.518;11.280;2023-06-19T04:20:40;19.60;63.70
76211;DHT22;65003;49.518;11.280;2023-06-19T04:23:07;19.70;63.00
76211;DHT22;65003;49.518;11.280;2023-06-19T04:25:34;19.80;62.70
76211;DHT22;65003;49.518;11.280;2023-06-19T04:28:00;19.90;61.40
76211;DHT22;65003;49.518;11.280;2023-06-19T04:30:27;19.90;60.80
76211;DHT22;65003;49.518;11.280;2023-06-19T04:32:53;20.00;60.90
76211;DHT22;65003;49.518;11.280;2023-06-19T04:35:20;20.10;60.80
76211;DHT22;65003;49.518;11.280;2023-06-19T04:37:47;20.20;59.60
76211;DHT22;65003;49.518;11.280;2023-06-19T04:40:13;20.30;60.00
76211;DHT22;65003;49.518;11.280;2023-06-19T04:42:40;20.30;59.40
76211;DHT22;65003;49.518;11.280;2023-06-19T04:45:07;20.30;60.10
76211;DHT22;65003;49.518;11.280;2023-06-19T04:47:35;20.30;60.80
76211;DHT22;65003;49.518;11.280;2023-06-19T04:50:02;20.20;61.60
76211;DHT22;65003;49.518;11.280;2023-06-19T04:52:28;20.20;61.80
76211;DHT22;65003;49.518;11.280;2023-06-19T04:54:55;20.30;62.00
76211;DHT22;65003;49.518;11.280;2023-06-19T04:57:22;20.30;62.20
76211;DHT22;65003;49.518;11.280;2023-06-19T04:59:48;20.40;62.40
76211;DHT22;65003;49.518;11.280;2023-06-19T05:02:15;20.70;61.40
76211;DHT22;65003;49.518;11.280;2023-06-19T05:04:41;20.90;60.90
76211;DHT22;65003;49.518;11.280;2023-06-19T05:07:08;21.20;60.50
76211;DHT22;65003;49.518;11.280;2023-06-19T05:09:35;21.40;59.50
76211;DHT22;65003;49.518;11.280;2023-06-19T05:12:01;21.50;59.00
76211;DHT22;65003;49.518;11.280;2023-06-19T05:14:29;21.60;58.70
76211;DHT22;65003;49.518;11.280;2023-06-19T05:16:55;21.60;58.30
76211;DHT22;65003;49.518;11.280;2023-06-19T05:19:22;21.60;58.80
76211;DHT22;65003;49.518;11.280;2023-06-19T05:21:49;21.50;58.30
76211;DHT22;65003;49.518;11.280;2023-06-19T05:24:15;21.50;59.20
76211;DHT22;65003;49.518;11.280;2023-06-19T05:26:42;21.60;59.10
76211;DHT22;65003;49.518;11.280;2023-06-19T05:29:08;21.70;60.10
76211;DHT22;65003;49.518;11.280;2023-06-19T05:31:35;21.80;60.20
76211;DHT22;65003;49.518;11.280;2023-06-19T05:34:02;22.00;59.90
76211;DHT22;65003;49.518;11.280;2023-06-19T05:36:28;22.10;57.60
76211;DHT22;65003;49.518;11.280;2023-06-19T05:38:55;22.30;57.00
76211;DHT22;65003;49.518;11.280;2023-06-19T05:41:21;22.70;57.50
76211;DHT22;65003;49.518;11.280;2023-06-19T05:43:48;23.00;55.50
76211;DHT22;65003;49.518;11.280;2023-06-19T05:46:15;23.30;55.00
76211;DHT22;65003;49.518;11.280;2023-06-19T05:48:41;23.60;54.60
76211;DHT22;65003;49.518;11.280;2023-06-19T05:51:08;23.70;53.30
76211;DHT22;65003;49.518;11.280;2023-06-19T05:53:34;23.90;52.90
76211;DHT22;65003;49.518;11.280;2023-06-19T05:56:01;24.40;52.50
76211;DHT22;65003;49.518;11.280;2023-06-19T05:58:27;24.80;51.40
76211;DHT22;65003;49.518;11.280;2023-06-19T06:00:54;25.30;50.00
76211;DHT22;65003;49.518;11.280;2023-06-19T06:03:21;25.50;49.00
76211;DHT22;65003;49.518;11.280;2023-06-19T06:05:47;25.50;48.70
76211;DHT22;65003;49.518;11.280;2023-06-19T06:08:14;25.40;49.70
76211;DHT22;65003;49.518;11.280;2023-06-19T06:10:40;25.60;49.50
76211;DHT22;65003;49.518;11.280;2023-06-19T06:13:07;26.10;48.90
76211;DHT22;65003;49.518;11.280;2023-06-19T06:15:34;26.40;48.90
76211;DHT22;65003;49.518;11.280;2023-06-19T06:18:00;26.70;48.40
76211;DHT22;65003;49.518;11.280;2023-06-19T06:20:27;27.10;47.60
76211;DHT22;65003;49.518;11.280;2023-06-19T06:22:54;27.50;46.90
76211;DHT22;65003;49.518;11.280;2023-06-19T06:25:20;27.60;45.70
76211;DHT22;65003;49.518;11.280;2023-06-19T06:27:47;27.50;45.10
76211;DHT22;65003;49.518;11.280;2023-06-19T06:30:13;27.60;46.10
76211;DHT22;65003;49.518;11.280;2023-06-19T06:32:40;28.10;45.10
76211;DHT22;65003;49.518;11.280;2023-06-19T06:35:07;28.60;44.40
76211;DHT22;65003;49.518;11.280;2023-06-19T06:37:34;29.00;43.80
76211;DHT22;65003;49.518;11.280;2023-06-19T06:40:00;29.40;43.10
76211;DHT22;65003;49.518;11.280;2023-06-19T06:42:27;29.40;41.50
76211;DHT22;65003;49.518;11.280;2023-06-19T06:44:54;29.30;43.30
76211;DHT22;65003;49.518;11.280;2023-06-19T06:47:20;29.20;42.50
76211;DHT22;65003;49.518;11.280;2023-06-19T06:49:47;29.20;43.50
76211;DHT22;65003;49.518;11.280;2023-06-19T06:52:13;29.40;43.60
76211;DHT22;65003;49.518;11.280;2023-06-19T06:54:40;29.60;43.70
76211;DHT22;65003;49.518;11.280;2023-06-19T06:57:07;29.40;42.70
76211;DHT22;65003;49.518;11.280;2023-06-19T06:59:33;29.00;44.20
76211;DHT22;65003;49.518;11.280;2023-06-19T07:02:00;28.20;45.80
76211;DHT22;65003;49.518;11.280;2023-06-19T07:04:27;27.60;47.30
76211;DHT22;65003;49.518;11.280;2023-06-19T07:06:54;27.10;48.50
76211;DHT22;65003;49.518;11.280;2023-06-19T07:09:20;26.70;49.10
76211;DHT22;65003;49.518;11.280;2023-06-19T07:11:48;26.40;50.00
76211;DHT22;65003;49.518;11.280;2023-06-19T07:14:15;26.20;50.80
76211;DHT22;65003;49.518;11.280;2023-06-19T07:16:41;25.80;51.70
76211;DHT22;65003;49.518;11.280;2023-06-19T07:19:08;25.50;52.60
76211;DHT22;65003;49.518;11.280;2023-06-19T07:21:35;25.50;52.50
76211;DHT22;65003;49.518;11.280;2023-06-19T07:24:01;25.60;52.70
76211;DHT22;65003;49.518;11.280;2023-06-19T07:26:28;25.70;52.80
76211;DHT22;65003;49.518;11.280;2023-06-19T07:28:54;26.00;52.30
76211;DHT22;65003;49.518;11.280;2023-06-19T07:31:22;26.90;50.90
76211;DHT22;65003;49.518;11.280;2023-06-19T07:33:48;27.70;48.00
76211;DHT22;65003;49.518;11.280;2023-06-19T07:36:15;28.10;47.80
76211;DHT22;65003;49.518;11.280;2023-06-19T07:38:42;28.30;46.50
76211;DHT22;65003;49.518;11.280;2023-06-19T07:41:09;28.30;47.50
76211;DHT22;65003;49.518;11.280;2023-06-19T07:43:35;28.60;47.10
76211;DHT22;65003;49.518;11.280;2023-06-19T07:46:02;28.90;46.70
76211;DHT22;65003;49.518;11.280;2023-06-19T07:48:28;28.80;46.40
76211;DHT22;65003;49.518;11.280;2023-06-19T07:50:55;28.60;46.80
76211;DHT22;65003;49.518;11.280;2023-06-19T07:53:21;28.10;47.80
76211;DHT22;65003;49.518;11.280;2023-06-19T07:55:48;27.80;49.10
76211;DHT22;65003;49.518;11.280;2023-06-19T07:58:15;27.40;50.00
76211;DHT22;65003;49.518;11.280;2023-06-19T08:00:41;27.10;50.60
76211;DHT22;65003;49.518;11.280;2023-06-19T08:03:08;27.00;51.50
76211;DHT22;65003;49.518;11.280;2023-06-19T08:05:34;26.90;50.60
76211;DHT22;65003;49.518;11.280;2023-06-19T08:08:01;26.80;52.20
76211;DHT22;65003;49.518;11.280;2023-06-19T08:10:28;26.70;51.60
76211;DHT22;65003;49.518;11.280;2023-06-19T08:12:54;26.70;52.20
76211;DHT22;65003;49.518;11.280;2023-06-19T08:15:21;26.90;52.00
76211;DHT22;65003;49.518;11.280;2023-06-19T08:17:48;27.20;50.90
76211;DHT22;65003;49.518;11.280;2023-06-19T08:20:15;27.50;50.80
76211;DHT22;65003;49.518;11.280;2023-06-19T08:22:41;27.50;50.90
76211;DHT22;65003;49.518;11.280;2023-06-19T08:25:08;27.50;51.10
76211;DHT22;65003;49.518;11.280;2023-06-19T08:27:34;27.40;51.30
76211;DHT22;65003;49.518;11.280;2023-06-19T08:30:01;27.40;52.00
76211;DHT22;65003;49.518;11.280;2023-06-19T08:32:28;27.30;52.30
76211;DHT22;65003;49.518;11.280;2023-06-19T08:34:55;27.30;52.20
76211;DHT22;65003;49.518;11.280;2023-06-19T08:37:22;27.30;52.20
76211;DHT22;65003;49.518;11.280;2023-06-19T08:39:49;27.30;52.10
76211;DHT22;65003;49.518;11.280;2023-06-19T08:42:15;27.40;52.40
76211;DHT22;65003;49.518;11.280;2023-06-19T08:44:42;27.40;51.80
76211;DHT22;65003;49.518;11.280;2023-06-19T08:47:09;27.40;52.10
76211;DHT22;65003;49.518;11.280;2023-06-19T08:49:36;27.40;52.20
76211;DHT22;65003;49.518;11.280;2023-06-19T08:52:02;27.40;51.80
76211;DHT22;65003;49.518;11.280;2023-06-19T08:54:29;27.30;52.20
76211;DHT22;65003;49.518;11.280;2023-06-19T08:56:55;27.40;50.90
76211;DHT22;65003;49.518;11.280;2023-06-19T08:59:22;27.50;51.40
76211;DHT22;65003;49.518;11.280;2023-06-19T09:01:50;28.00;50.30
76211;DHT22;65003;49.518;11.280;2023-06-19T09:04:20;29.00;48.80
76211;DHT22;65003;49.518;11.280;2023-06-19T09:06:50;30.20;45.50
76211;DHT22;65003;49.518;11.280;2023-06-19T09:09:16;31.10;44.10
76211;DHT22;65003;49.518;11.280;2023-06-19T09:11:42;31.40;42.80
76211;DHT22;65003;49.518;11.280;2023-06-19T09:14:10;31.10;43.60
76211;DHT22;65003;49.518;11.280;2023-06-19T09:16:37;30.90;43.40
76211;DHT22;65003;49.518;11.280;2023-06-19T09:19:03;31.20;43.10
76211;DHT22;65003;49.518;11.280;2023-06-19T09:21:29;31.50;42.70
76211;DHT22;65003;49.518;11.280;2023-06-19T09:24:04;31.90;42.20
76211;DHT22;65003;49.518;11.280;2023-06-19T09:26:30;32.10;41.20
76211;DHT22;65003;49.518;11.280;2023-06-19T09:28:57;32.00;41.20
76211;DHT22;65003;49.518;11.280;2023-06-19T09:31:32;32.20;40.70
76211;DHT22;65003;49.518;11.280;2023-06-19T09:33:58;32.40;39.80
76211;DHT22;65003;49.518;11.280;2023-06-19T09:36:24;32.40;40.20
76211;DHT22;65003;49.518;11.280;2023-06-19T09:38:51;32.40;40.80
76211;DHT22;65003;49.518;11.280;2023-06-19T09:41:18;32.00;41.20
76211;DHT22;65003;49.518;11.280;2023-06-19T09:43:44;31.40;41.90
76211;DHT22;65003;49.518;11.280;2023-06-19T09:46:11;31.10;42.40
76211;DHT22;65003;49.518;11.280;2023-06-19T09:48:42;30.70;43.80
76211;DHT22;65003;49.518;11.280;2023-06-19T09:51:19;30.60;43.90
76211;DHT22;65003;49.518;11.280;2023-06-19T09:53:46;30.90;45.30
76211;DHT22;65003;49.518;11.280;2023-06-19T09:56:13;31.40;42.60
76211;DHT22;65003;49.518;11.280;2023-06-19T09:58:39;32.00;41.00
76211;DHT22;65003;49.518;11.280;2023-06-19T10:01:06;32.20;41.30
76211;DHT22;65003;49.518;11.280;2023-06-19T10:03:33;32.30;41.10
76211;DHT22;65003;49.518;11.280;2023-06-19T10:06:00;32.20;40.60
76211;DHT22;65003;49.518;11.280;2023-06-19T10:08:31;32.10;43.20
76211;DHT22;65003;49.518;11.280;2023-06-19T10:10:56;32.40;40.80
76211;DHT22;65003;49.518;11.280;2023-06-19T10:13:30;32.60;39.60
76211;DHT22;65003;49.518;11.280;2023-06-19T10:15:50;32.80;59.40
76211;DHT22;65003;49.518;11.280;2023-06-19T10:18:17;33.20;40.20
76211;DHT22;65003;49.518;11.280;2023-06-19T10:20:45;33.60;39.00
76211;DHT22;65003;49.518;11.280;2023-06-19T10:23:16;33.90;37.90
76211;DHT22;65003;49.518;11.280;2023-06-19T10:25:42;34.00;38.00
76211;DHT22;65003;49.518;11.280;2023-06-19T10:28:22;34.00;37.70
76211;DHT22;65003;49.518;11.280;2023-06-19T10:30:55;33.90;37.10
76211;DHT22;65003;49.518;11.280;2023-06-19T10:35:48;33.90;42.50
76211;DHT22;65003;49.518;11.280;2023-06-19T10:38:15;33.90;38.50
76211;DHT22;65003;49.518;11.280;2023-06-19T10:40:41;33.70;38.10
76211;DHT22;65003;49.518;11.280;2023-06-19T10:43:08;33.60;39.00
76211;DHT22;65003;49.518;11.280;2023-06-19T10:45:35;33.30;38.80
76211;DHT22;65003;49.518;11.280;2023-06-19T10:48:02;33.10;39.30
76211;DHT22;65003;49.518;11.280;2023-06-19T10:50:29;32.60;40.30
76211;DHT22;65003;49.518;11.280;2023-06-19T10:52:58;32.30;40.30
76211;DHT22;65003;49.518;11.280;2023-06-19T10:55:26;32.10;41.60
76211;DHT22;65003;49.518;11.280;2023-06-19T10:57:52;31.80;41.00
76211;DHT22;65003;49.518;11.280;2023-06-19T11:00:26;31.90;41.40
76211;DHT22;65003;49.518;11.280;2023-06-19T11:02:51;31.90;52.00
76211;DHT22;65003;49.518;11.280;2023-06-19T11:05:20;32.10;51.60
76211;DHT22;65003;49.518;11.280;2023-06-19T11:07:52;32.10;41.90
76211;DHT22;65003;49.518;11.280;2023-06-19T11:10:19;32.10;46.80
76211;DHT22;65003;49.518;11.280;2023-06-19T11:12:45;32.10;48.40
76211;DHT22;65003;49.518;11.280;2023-06-19T11:15:12;32.30;40.80
76211;DHT22;65003;49.518;11.280;2023-06-19T11:17:39;32.40;39.90
76211;DHT22;65003;49.518;11.280;2023-06-19T11:20:11;32.30;40.50
76211;DHT22;65003;49.518;11.280;2023-06-19T11:22:38;32.10;40.40
76211;DHT22;65003;49.518;11.280;2023-06-19T11:25:05;31.80;40.20
76211;DHT22;65003;49.518;11.280;2023-06-19T11:27:32;31.60;45.70
76211;DHT22;65003;49.518;11.280;2023-06-19T11:29:59;31.70;41.00
76211;DHT22;65003;49.518;11.280;2023-06-19T11:32:31;31.60;41.90
76211;DHT22;65003;49.518;11.280;2023-06-19T11:34:57;31.60;44.60
76211;DHT22;65003;49.518;11.280;2023-06-19T11:37:23;31.70;40.10
76211;DHT22;65003;49.518;11.280;2023-06-19T11:39:51;31.70;40.70
76211;DHT22;65003;49.518;11.280;2023-06-19T11:42:17;31.60;40.80
76211;DHT22;65003;49.518;11.280;2023-06-19T11:44:53;31.50;43.80
76211;DHT22;65003;49.518;11.280;2023-06-19T11:47:19;31.50;48.90
76211;DHT22;65003;49.518;11.280;2023-06-19T11:49:48;31.40;41.50
76211;DHT22;65003;49.518;11.280;2023-06-19T11:52:14;31.40;52.00
76211;DHT22;65003;49.518;11.280;2023-06-19T11:54:41;31.40;66.70
76211;DHT22;65003;49.518;11.280;2023-06-19T11:57:08;31.30;66.60
76211;DHT22;65003;49.518;11.280;2023-06-19T11:59:35;31.20;67.20
76211;DHT22;65003;49.518;11.280;2023-06-19T12:02:01;31.00;51.00
76211;DHT22;65003;49.518;11.280;2023-06-19T12:06:55;30.90;46.30
76211;DHT22;65003;49.518;11.280;2023-06-19T12:09:21;30.80;47.60
76211;DHT22;65003;49.518;11.280;2023-06-19T12:11:48;30.70;51.70
76211;DHT22;65003;49.518;11.280;2023-06-19T12:14:14;30.60;42.50
76211;DHT22;65003;49.518;11.280;2023-06-19T12:16:41;30.60;42.90
76211;DHT22;65003;49.518;11.280;2023-06-19T12:19:08;30.50;43.40
76211;DHT22;65003;49.518;11.280;2023-06-19T12:21:35;30.40;42.20
76211;DHT22;65003;49.518;11.280;2023-06-19T12:24:02;30.30;43.30
76211;DHT22;65003;49.518;11.280;2023-06-19T12:26:29;30.30;43.10
76211;DHT22;65003;49.518;11.280;2023-06-19T12:28:55;30.30;42.80
76211;DHT22;65003;49.518;11.280;2023-06-19T12:31:22;30.30;43.40
76211;DHT22;65003;49.518;11.280;2023-06-19T12:33:48;30.30;44.00
76211;DHT22;65003;49.518;11.280;2023-06-19T12:36:15;30.40;43.70
76211;DHT22;65003;49.518;11.280;2023-06-19T12:38:42;30.40;44.10
76211;DHT22;65003;49.518;11.280;2023-06-19T12:41:08;30.30;43.50
76211;DHT22;65003;49.518;11.280;2023-06-19T12:43:35;30.40;44.70
76211;DHT22;65003;49.518;11.280;2023-06-19T12:46:02;30.40;47.40
76211;DHT22;65003;49.518;11.280;2023-06-19T12:48:28;30.50;42.60
76211;DHT22;65003;49.518;11.280;2023-06-19T12:50:55;30.60;43.70
76211;DHT22;65003;49.518;11.280;2023-06-19T12:53:22;30.70;42.70
76211;DHT22;65003;49.518;11.280;2023-06-19T12:55:48;30.80;43.70
76211;DHT22;65003;49.518;11.280;2023-06-19T12:58:15;30.80;43.70
76211;DHT22;65003;49.518;11.280;2023-06-19T13:00:41;30.70;43.80
76211;DHT22;65003;49.518;11.280;2023-06-19T13:03:08;30.60;45.50
76211;DHT22;65003;49.518;11.280;2023-06-19T13:05:34;30.40;42.90
76211;DHT22;65003;49.518;11.280;2023-06-19T13:08:01;30.30;42.50
76211;DHT22;65003;49.518;11.280;2023-06-19T13:10:28;30.20;43.40
76211;DHT22;65003;49.518;11.280;2023-06-19T13:12:54;30.10;54.60
76211;DHT22;65003;49.518;11.280;2023-06-19T13:15:21;30.30;55.00
76211;DHT22;65003;49.518;11.280;2023-06-19T13:17:47;30.30;54.80
76211;DHT22;65003;49.518;11.280;2023-06-19T13:20:14;30.40;53.10
76211;DHT22;65003;49.518;11.280;2023-06-19T13:22:41;30.50;52.70
76211;DHT22;65003;49.518;11.280;2023-06-19T13:25:08;30.50;53.10
76211;DHT22;65003;49.518;11.280;2023-06-19T13:27:34;30.50;52.80
76211;DHT22;65003;49.518;11.280;2023-06-19T13:30:01;30.50;52.70
76211;DHT22;65003;49.518;11.280;2023-06-19T13:32:28;30.50;52.40
76211;DHT22;65003;49.518;11.280;2023-06-19T13:34:54;30.40;52.50
76211;DHT22;65003;49.518;11.280;2023-06-19T13:37:21;30.50;52.70
76211;DHT22;65003;49.518;11.280;2023-06-19T13:39:47;30.50;52.50
76211;DHT22;65003;49.518;11.280;2023-06-19T13:42:14;30.50;53.40
76211;DHT22;65003;49.518;11.280;2023-06-19T13:44:40;30.50;54.30
76211;DHT22;65003;49.518;11.280;2023-06-19T13:47:07;30.40;54.80
76211;DHT22;65003;49.518;11.280;2023-06-19T13:49:34;30.50;56.40
76211;DHT22;65003;49.518;11.280;2023-06-19T13:52:00;30.60;56.60
76211;DHT22;65003;49.518;11.280;2023-06-19T13:54:27;30.40;56.10
76211;DHT22;65003;49.518;11.280;2023-06-19T13:56:53;30.40;55.20
76211;DHT22;65003;49.518;11.280;2023-06-19T13:59:20;30.50;55.50
76211;DHT22;65003;49.518;11.280;2023-06-19T14:01:47;30.50;55.20
76211;DHT22;65003;49.518;11.280;2023-06-19T14:04:14;30.40;53.70
76211;DHT22;65003;49.518;11.280;2023-06-19T14:06:40;30.40;52.70
76211;DHT22;65003;49.518;11.280;2023-06-19T14:09:07;30.20;52.00
76211;DHT22;65003;49.518;11.280;2023-06-19T14:11:33;30.30;52.90
76211;DHT22;65003;49.518;11.280;2023-06-19T14:14:00;30.40;53.10
76211;DHT22;65003;49.518;11.280;2023-06-19T14:16:27;30.60;52.50
76211;DHT22;65003;49.518;11.280;2023-06-19T14:18:53;30.70;51.70
76211;DHT22;65003;49.518;11.280;2023-06-19T14:21:20;30.70;52.00
76211;DHT22;65003;49.518;11.280;2023-06-19T14:23:46;30.70;52.80
76211;DHT22;65003;49.518;11.280;2023-06-19T14:26:13;30.50;52.50
76211;DHT22;65003;49.518;11.280;2023-06-19T14:28:40;30.40;53.10
76211;DHT22;65003;49.518;11.280;2023-06-19T14:31:06;30.20;54.00
76211;DHT22;65003;49.518;11.280;2023-06-19T14:33:33;30.10;44.90
76211;DHT22;65003;49.518;11.280;2023-06-19T14:36:00;29.80;44.80
76211;DHT22;65003;49.518;11.280;2023-06-19T14:38:26;29.60;45.90
76211;DHT22;65003;49.518;11.280;2023-06-19T14:40:53;29.50;46.60
76211;DHT22;65003;49.518;11.280;2023-06-19T14:43:19;29.30;48.00
76211;DHT22;65003;49.518;11.280;2023-06-19T14:45:46;29.10;49.40
76211;DHT22;65003;49.518;11.280;2023-06-19T14:48:12;28.80;50.30
76211;DHT22;65003;49.518;11.280;2023-06-19T14:50:39;28.70;50.70
76211;DHT22;65003;49.518;11.280;2023-06-19T14:53:06;28.50;51.00
76211;DHT22;65003;49.518;11.280;2023-06-19T14:55:32;28.30;49.90
76211;DHT22;65003;49.518;11.280;2023-06-19T14:57:59;28.20;49.80
76211;DHT22;65003;49.518;11.280;2023-06-19T15:00:25;28.20;49.70
76211;DHT22;65003;49.518;11.280;2023-06-19T15:02:52;28.10;49.50
76211;DHT22;65003;49.518;11.280;2023-06-19T15:05:19;27.90;49.30
76211;DHT22;65003;49.518;11.280;2023-06-19T15:07:45;27.90;49.30
76211;DHT22;65003;49.518;11.280;2023-06-19T15:10:12;27.80;49.60
76211;DHT22;65003;49.518;11.280;2023-06-19T15:12:38;27.70;49.60
76211;DHT22;65003;49.518;11.280;2023-06-19T15:15:06;27.60;49.40
76211;DHT22;65003;49.518;11.280;2023-06-19T15:17:32;27.60;49.80